sensor_id;sensor_type;location;lat;lon;timestamp;temperature;humidity
17425;DHT22;8830;50.978;5.058;2022-08-01T00:02:27;21.80;99.90
17425;DHT22;8830;50.978;5.058;2022-08-01T00:04:54;21.80;99.90
17425;DHT22;8830;50.978;5.058;2022-08-01T00:07:22;21.70;99.90
17425;DHT22;8830;50.978;5.058;2022-08-01T00:09:49;21.80;99.90
17425;DHT22;8830;50.978;5.058;2022-08-01T00:12:18;21.80;99.90
17425;DHT22;8830;50.978;5.058;2022-08-01T00:14:45;21.70;99.90
17425;DHT22;8830;50.978;5.058;2022-08-01T00:17:12;21.70;99.90
17425;DHT22;8830;50.978;5.058;2022-08-01T00:19:39;21.70;99.90
17425;DHT22;8830;50.978;5.058;2022-08-01T00:22:07;21.70;99.90
17425;DHT22;8830;50.978;5.058;2022-08-01T00:24:34;21.70;99.90
17425;DHT22;8830;50.978;5.058;2022-08-01T00:27:01;21.70;99.90
17425;DHT22;8830;50.978;5.058;2022-08-01T00:29:30;21.70;99.90
17425;DHT22;8830;50.978;5.058;2022-08-01T00:31:57;21.60;99.90
17425;DHT22;8830;50.978;5.058;2022-08-01T00:34:24;21.60;99.90
17425;DHT22;8830;50.978;5.058;2022-08-01T00:36:52;21.60;99.90
17425;DHT22;8830;50.978;5.058;2022-08-01T00:39:19;21.60;99.90
17425;DHT22;8830;50.978;5.058;2022-08-01T00:41:46;21.60;99.90
17425;DHT22;8830;50.978;5.058;2022-08-01T00:44:13;21.50;99.90
17425;DHT22;8830;50.978;5.058;2022-08-01T00:46:42;21.50;99.90
17425;DHT22;8830;50.978;5.058;2022-08-01T00:49:09;21.50;99.90
17425;DHT22;8830;50.978;5.058;2022-08-01T00:51:36;21.60;99.90
17425;DHT22;8830;50.978;5.058;2022-08-01T00:54:03;21.60;99.90
17425;DHT22;8830;50.978;5.058;2022-08-01T00:56:31;21.50;99.90
17425;DHT22;8830;50.978;5.058;2022-08-01T01:01:26;21.50;99.90
17425;DHT22;8830;50.978;5.058;2022-08-01T01:03:55;21.50;99.90
17425;DHT22;8830;50.978;5.058;2022-08-01T01:06:31;21.50;99.90
17425;DHT22;8830;50.978;5.058;2022-08-01T01:09:13;21.40;99.90
17425;DHT22;8830;50.978;5.058;2022-08-01T01:11:46;21.50;99.90
17425;DHT22;8830;50.978;5.058;2022-08-01T01:14:21;21.50;99.90
17425;DHT22;8830;50.978;5.058;2022-08-01T01:16:51;21.40;99.90
17425;DHT22;8830;50.978;5.058;2022-08-01T01:19:24;21.40;99.90
17425;DHT22;8830;50.978;5.058;2022-08-01T01:28:04;21.40;99.90
17425;DHT22;8830;50.978;5.058;2022-08-01T01:30:39;21.40;99.90
17425;DHT22;8830;50.978;5.058;2022-08-01T01:33:09;21.30;99.90
17425;DHT22;8830;50.978;5.058;2022-08-01T01:35:41;21.30;99.90
17425;DHT22;8830;50.978;5.058;2022-08-01T01:38:12;21.30;99.90
17425;DHT22;8830;50.978;5.058;2022-08-01T01:40:41;21.30;99.90
17425;DHT22;8830;50.978;5.058;2022-08-01T01:43:11;21.30;99.90
17425;DHT22;8830;50.978;5.058;2022-08-01T01:45:41;21.30;99.90
17425;DHT22;8830;50.978;5.058;2022-08-01T01:48:09;21.40;99.90
17425;DHT22;8830;50.978;5.058;2022-08-01T01:50:39;21.40;99.90
17425;DHT22;8830;50.978;5.058;2022-08-01T01:53:08;21.40;99.90
17425;DHT22;8830;50.978;5.058;2022-08-01T01:55:37;21.40;99.90
17425;DHT22;8830;50.978;5.058;2022-08-01T01:58:06;21.40;99.90
17425;DHT22;8830;50.978;5.058;2022-08-01T02:00:35;21.40;99.90
17425;DHT22;8830;50.978;5.058;2022-08-01T02:03:07;21.40;99.90
17425;DHT22;8830;50.978;5.058;2022-08-01T02:05:35;21.40;99.90
17425;DHT22;8830;50.978;5.058;2022-08-01T02:08:04;21.40;99.90
17425;DHT22;8830;50.978;5.058;2022-08-01T02:10:32;21.40;99.90
17425;DHT22;8830;50.978;5.058;2022-08-01T02:13:03;21.40;99.90
17425;DHT22;8830;50.978;5.058;2022-08-01T02:15:32;21.40;99.90
17425;DHT22;8830;50.978;5.058;2022-08-01T02:18:00;21.40;99.90
17425;DHT22;8830;50.978;5.058;2022-08-01T02:20:30;21.40;99.90
17425;DHT22;8830;50.978;5.058;2022-08-01T02:23:06;21.30;99.90
17425;DHT22;8830;50.978;5.058;2022-08-01T02:25:39;21.40;99.90
17425;DHT22;8830;50.978;5.058;2022-08-01T02:28:12;21.30;99.90
17425;DHT22;8830;50.978;5.058;2022-08-01T02:30:43;21.30;99.90
17425;DHT22;8830;50.978;5.058;2022-08-01T02:33:18;21.30;99.90
17425;DHT22;8830;50.978;5.058;2022-08-01T02:35:50;21.20;99.90
17425;DHT22;8830;50.978;5.058;2022-08-01T02:38:20;21.30;99.90
17425;DHT22;8830;50.978;5.058;2022-08-01T02:40:50;21.30;99.90
17425;DHT22;8830;50.978;5.058;2022-08-01T02:43:21;21.30;99.90
17425;DHT22;8830;50.978;5.058;2022-08-01T02:45:53;21.30;99.90
17425;DHT22;8830;50.978;5.058;2022-08-01T02:48:21;21.30;99.90
17425;DHT22;8830;50.978;5.058;2022-08-01T02:50:53;21.30;99.90
17425;DHT22;8830;50.978;5.058;2022-08-01T02:53:23;21.30;99.90
17425;DHT22;8830;50.978;5.058;2022-08-01T02:55:51;21.30;99.90
17425;DHT22;8830;50.978;5.058;2022-08-01T02:58:20;21.20;99.90
17425;DHT22;8830;50.978;5.058;2022-08-01T03:00:51;21.20;99.90
17425;DHT22;8830;50.978;5.058;2022-08-01T03:03:18;21.10;99.90
17425;DHT22;8830;50.978;5.058;2022-08-01T03:05:47;20.90;99.90
17425;DHT22;8830;50.978;5.058;2022-08-01T03:08:17;21.10;99.90
17425;DHT22;8830;50.978;5.058;2022-08-01T03:10:45;21.10;99.90
17425;DHT22;8830;50.978;5.058;2022-08-01T03:13:15;21.10;99.90
17425;DHT22;8830;50.978;5.058;2022-08-01T03:15:43;21.10;99.90
17425;DHT22;8830;50.978;5.058;2022-08-01T03:18:12;21.10;99.90
17425;DHT22;8830;50.978;5.058;2022-08-01T03:20:41;21.10;99.90
17425;DHT22;8830;50.978;5.058;2022-08-01T03:23:11;21.00;99.90
17425;DHT22;8830;50.978;5.058;2022-08-01T03:25:41;21.00;99.90
17425;DHT22;8830;50.978;5.058;2022-08-01T03:28:12;21.10;99.90
17425;DHT22;8830;50.978;5.058;2022-08-01T03:30:40;21.10;99.90
17425;DHT22;8830;50.978;5.058;2022-08-01T03:33:09;21.10;99.90
17425;DHT22;8830;50.978;5.058;2022-08-01T03:35:40;21.10;99.90
17425;DHT22;8830;50.978;5.058;2022-08-01T03:38:10;21.10;99.90
17425;DHT22;8830;50.978;5.058;2022-08-01T03:40:43;21.10;99.90
17425;DHT22;8830;50.978;5.058;2022-08-01T03:43:18;21.00;99.90
17425;DHT22;8830;50.978;5.058;2022-08-01T03:45:49;21.00;99.90
17425;DHT22;8830;50.978;5.058;2022-08-01T03:48:18;21.00;99.90
17425;DHT22;8830;50.978;5.058;2022-08-01T03:50:48;21.00;99.90
17425;DHT22;8830;50.978;5.058;2022-08-01T03:53:20;21.00;99.90
17425;DHT22;8830;50.978;5.058;2022-08-01T03:55:49;21.10;99.90
17425;DHT22;8830;50.978;5.058;2022-08-01T03:58:17;21.10;99.90
17425;DHT22;8830;50.978;5.058;2022-08-01T04:00:44;21.10;99.90
17425;DHT22;8830;50.978;5.058;2022-08-01T04:03:13;21.00;99.90
17425;DHT22;8830;50.978;5.058;2022-08-01T04:05:41;21.00;99.90
17425;DHT22;8830;50.978;5.058;2022-08-01T04:08:09;20.90;99.90
17425;DHT22;8830;50.978;5.058;2022-08-01T04:10:37;20.90;99.90
17425;DHT22;8830;50.978;5.058;2022-08-01T04:13:09;20.90;99.90
17425;DHT22;8830;50.978;5.058;2022-08-01T04:15:37;20.90;99.90
17425;DHT22;8830;50.978;5.058;2022-08-01T04:18:05;20.90;99.90
17425;DHT22;8830;50.978;5.058;2022-08-01T04:20:33;20.90;99.90
17425;DHT22;8830;50.978;5.058;2022-08-01T04:23:01;20.90;99.90
17425;DHT22;8830;50.978;5.058;2022-08-01T04:25:38;20.90;99.90
17425;DHT22;8830;50.978;5.058;2022-08-01T04:28:13;20.80;99.90
17425;DHT22;8830;50.978;5.058;2022-08-01T04:30:49;20.90;99.90
17425;DHT22;8830;50.978;5.058;2022-08-01T04:33:23;20.80;99.90
17425;DHT22;8830;50.978;5.058;2022-08-01T04:35:54;20.70;99.90
17425;DHT22;8830;50.978;5.058;2022-08-01T04:38:35;20.70;99.90
17425;DHT22;8830;50.978;5.058;2022-08-01T04:41:11;20.50;99.90
17425;DHT22;8830;50.978;5.058;2022-08-01T04:43:54;20.50;99.90
17425;DHT22;8830;50.978;5.058;2022-08-01T04:46:40;20.50;99.90
17425;DHT22;8830;50.978;5.058;2022-08-01T04:49:12;20.50;99.90
17425;DHT22;8830;50.978;5.058;2022-08-01T04:54:39;20.40;99.90
17425;DHT22;8830;50.978;5.058;2022-08-01T04:57:25;20.30;99.90
17425;DHT22;8830;50.978;5.058;2022-08-01T04:59:58;20.30;99.90
17425;DHT22;8830;50.978;5.058;2022-08-01T05:02:28;20.30;99.90
17425;DHT22;8830;50.978;5.058;2022-08-01T05:04:56;20.30;99.90
17425;DHT22;8830;50.978;5.058;2022-08-01T05:07:24;20.30;99.90
17425;DHT22;8830;50.978;5.058;2022-08-01T05:09:52;20.30;99.90
17425;DHT22;8830;50.978;5.058;2022-08-01T05:12:19;20.20;99.90
17425;DHT22;8830;50.978;5.058;2022-08-01T05:14:47;20.10;99.90
17425;DHT22;8830;50.978;5.058;2022-08-01T05:17:17;20.10;99.90
17425;DHT22;8830;50.978;5.058;2022-08-01T05:19:46;20.10;99.90
17425;DHT22;8830;50.978;5.058;2022-08-01T05:22:14;20.20;99.90
17425;DHT22;8830;50.978;5.058;2022-08-01T05:24:41;20.30;99.90
17425;DHT22;8830;50.978;5.058;2022-08-01T05:29:41;20.30;99.90
17425;DHT22;8830;50.978;5.058;2022-08-01T05:32:09;20.20;99.90
17425;DHT22;8830;50.978;5.058;2022-08-01T05:34:38;20.20;99.90
17425;DHT22;8830;50.978;5.058;2022-08-01T05:37:05;20.30;99.90
17425;DHT22;8830;50.978;5.058;2022-08-01T05:39:33;20.40;99.90
17425;DHT22;8830;50.978;5.058;2022-08-01T05:42:02;20.40;99.90
17425;DHT22;8830;50.978;5.058;2022-08-01T05:44:36;20.50;99.90
17425;DHT22;8830;50.978;5.058;2022-08-01T05:47:06;20.40;99.90
17425;DHT22;8830;50.978;5.058;2022-08-01T05:49:34;20.50;99.90
17425;DHT22;8830;50.978;5.058;2022-08-01T05:52:04;20.60;99.90
17425;DHT22;8830;50.978;5.058;2022-08-01T05:56:59;20.50;99.90
17425;DHT22;8830;50.978;5.058;2022-08-01T06:01:54;20.40;99.90
17425;DHT22;8830;50.978;5.058;2022-08-01T06:04:22;20.50;99.90
17425;DHT22;8830;50.978;5.058;2022-08-01T06:06:50;20.50;99.90
17425;DHT22;8830;50.978;5.058;2022-08-01T06:09:21;20.50;99.90
17425;DHT22;8830;50.978;5.058;2022-08-01T06:11:50;20.60;99.90
17425;DHT22;8830;50.978;5.058;2022-08-01T06:14:19;20.60;99.90
17425;DHT22;8830;50.978;5.058;2022-08-01T06:16:47;20.80;99.90
17425;DHT22;8830;50.978;5.058;2022-08-01T06:19:15;21.00;99.90
17425;DHT22;8830;50.978;5.058;2022-08-01T06:21:44;21.00;99.90
17425;DHT22;8830;50.978;5.058;2022-08-01T06:24:12;21.00;99.90
17425;DHT22;8830;50.978;5.058;2022-08-01T06:26:41;21.10;99.90
17425;DHT22;8830;50.978;5.058;2022-08-01T06:29:09;21.10;99.90
17425;DHT22;8830;50.978;5.058;2022-08-01T06:31:36;21.10;99.90
17425;DHT22;8830;50.978;5.058;2022-08-01T06:34:05;21.20;99.90
17425;DHT22;8830;50.978;5.058;2022-08-01T06:36:32;21.40;99.90
17425;DHT22;8830;50.978;5.058;2022-08-01T06:39:00;21.50;99.90
17425;DHT22;8830;50.978;5.058;2022-08-01T06:43:57;21.60;99.90
17425;DHT22;8830;50.978;5.058;2022-08-01T06:48:56;21.60;99.90
17425;DHT22;8830;50.978;5.058;2022-08-01T06:51:23;21.70;99.90
17425;DHT22;8830;50.978;5.058;2022-08-01T06:53:50;21.80;99.90
17425;DHT22;8830;50.978;5.058;2022-08-01T06:56:18;21.90;99.90
17425;DHT22;8830;50.978;5.058;2022-08-01T06:58:45;21.90;99.90
17425;DHT22;8830;50.978;5.058;2022-08-01T07:01:13;22.10;99.90
17425;DHT22;8830;50.978;5.058;2022-08-01T07:03:40;22.30;99.90
17425;DHT22;8830;50.978;5.058;2022-08-01T07:06:08;22.90;99.90
17425;DHT22;8830;50.978;5.058;2022-08-01T07:08:35;23.50;99.90
17425;DHT22;8830;50.978;5.058;2022-08-01T07:11:03;23.50;99.90
17425;DHT22;8830;50.978;5.058;2022-08-01T07:13:32;23.40;99.90
17425;DHT22;8830;50.978;5.058;2022-08-01T07:15:59;23.20;99.90
17425;DHT22;8830;50.978;5.058;2022-08-01T07:20:55;23.70;99.90
17425;DHT22;8830;50.978;5.058;2022-08-01T07:23:22;23.70;99.90
17425;DHT22;8830;50.978;5.058;2022-08-01T07:28:20;24.10;99.90
17425;DHT22;8830;50.978;5.058;2022-08-01T07:30:49;23.80;99.90
17425;DHT22;8830;50.978;5.058;2022-08-01T07:33:18;23.60;99.90
17425;DHT22;8830;50.978;5.058;2022-08-01T07:35:49;23.70;99.90
17425;DHT22;8830;50.978;5.058;2022-08-01T07:38:16;23.90;99.90
17425;DHT22;8830;50.978;5.058;2022-08-01T07:40:49;23.90;99.90
17425;DHT22;8830;50.978;5.058;2022-08-01T07:43:16;25.30;99.90
17425;DHT22;8830;50.978;5.058;2022-08-01T07:45:46;25.30;99.90
17425;DHT22;8830;50.978;5.058;2022-08-01T07:48:13;26.20;99.90
17425;DHT22;8830;50.978;5.058;2022-08-01T07:50:40;28.60;99.90
17425;DHT22;8830;50.978;5.058;2022-08-01T07:53:09;28.60;99.90
17425;DHT22;8830;50.978;5.058;2022-08-01T07:55:42;28.80;99.90
17425;DHT22;8830;50.978;5.058;2022-08-01T07:58:09;29.00;99.90
17425;DHT22;8830;50.978;5.058;2022-08-01T08:05:32;25.80;99.90
17425;DHT22;8830;50.978;5.058;2022-08-01T08:08:01;25.20;99.90
17425;DHT22;8830;50.978;5.058;2022-08-01T08:10:31;24.90;99.90
17425;DHT22;8830;50.978;5.058;2022-08-01T08:13:02;24.90;99.90
17425;DHT22;8830;50.978;5.058;2022-08-01T08:15:29;24.70;99.90
17425;DHT22;8830;50.978;5.058;2022-08-01T08:17:57;24.60;99.90
17425;DHT22;8830;50.978;5.058;2022-08-01T08:20:25;24.50;99.90
17425;DHT22;8830;50.978;5.058;2022-08-01T08:22:53;24.50;99.90
17425;DHT22;8830;50.978;5.058;2022-08-01T08:25:20;24.60;99.90
17425;DHT22;8830;50.978;5.058;2022-08-01T08:27:50;25.00;99.90
17425;DHT22;8830;50.978;5.058;2022-08-01T08:32:46;25.30;99.90
17425;DHT22;8830;50.978;5.058;2022-08-01T08:35:14;25.60;99.90
17425;DHT22;8830;50.978;5.058;2022-08-01T08:37:41;25.80;99.90
17425;DHT22;8830;50.978;5.058;2022-08-01T08:42:40;25.60;99.90
17425;DHT22;8830;50.978;5.058;2022-08-01T08:45:12;25.60;99.90
17425;DHT22;8830;50.978;5.058;2022-08-01T08:47:41;25.60;99.90
17425;DHT22;8830;50.978;5.058;2022-08-01T08:50:08;25.40;99.90
17425;DHT22;8830;50.978;5.058;2022-08-01T08:52:38;25.30;99.90
17425;DHT22;8830;50.978;5.058;2022-08-01T08:55:07;25.30;99.90
17425;DHT22;8830;50.978;5.058;2022-08-01T08:57:35;25.30;99.90
17425;DHT22;8830;50.978;5.058;2022-08-01T09:00:05;25.30;99.90
17425;DHT22;8830;50.978;5.058;2022-08-01T09:02:36;25.70;99.90
17425;DHT22;8830;50.978;5.058;2022-08-01T09:05:08;26.20;99.90
17425;DHT22;8830;50.978;5.058;2022-08-01T09:10:05;26.90;99.90
17425;DHT22;8830;50.978;5.058;2022-08-01T09:12:32;26.70;99.90
17425;DHT22;8830;50.978;5.058;2022-08-01T09:14:59;26.80;99.90
17425;DHT22;8830;50.978;5.058;2022-08-01T09:17:26;25.90;99.90
17425;DHT22;8830;50.978;5.058;2022-08-01T09:19:56;25.90;99.90
17425;DHT22;8830;50.978;5.058;2022-08-01T09:22:37;25.90;99.90
17425;DHT22;8830;50.978;5.058;2022-08-01T09:25:31;26.20;99.90
17425;DHT22;8830;50.978;5.058;2022-08-01T09:28:41;27.30;99.90
17425;DHT22;8830;50.978;5.058;2022-08-01T09:31:38;27.90;99.90
17425;DHT22;8830;50.978;5.058;2022-08-01T09:34:08;28.50;99.90
17425;DHT22;8830;50.978;5.058;2022-08-01T09:37:15;28.50;99.90
17425;DHT22;8830;50.978;5.058;2022-08-01T09:40:13;28.90;99.90
17425;DHT22;8830;50.978;5.058;2022-08-01T09:43:21;29.30;99.90
17425;DHT22;8830;50.978;5.058;2022-08-01T09:46:21;29.70;99.90
17425;DHT22;8830;50.978;5.058;2022-08-01T09:49:40;29.90;99.90
17425;DHT22;8830;50.978;5.058;2022-08-01T09:55:51;29.30;99.90
17425;DHT22;8830;50.978;5.058;2022-08-01T09:58:49;28.60;99.90
17425;DHT22;8830;50.978;5.058;2022-08-01T10:01:20;28.40;99.90
17425;DHT22;8830;50.978;5.058;2022-08-01T10:04:08;27.60;99.90
17425;DHT22;8830;50.978;5.058;2022-08-01T10:06:37;27.70;99.90
17425;DHT22;8830;50.978;5.058;2022-08-01T10:09:05;27.90;99.90
17425;DHT22;8830;50.978;5.058;2022-08-01T10:11:34;28.20;99.90
17425;DHT22;8830;50.978;5.058;2022-08-01T10:14:05;28.20;99.90
17425;DHT22;8830;50.978;5.058;2022-08-01T10:16:36;27.90;99.90
17425;DHT22;8830;50.978;5.058;2022-08-01T10:19:05;27.90;99.90
17425;DHT22;8830;50.978;5.058;2022-08-01T10:21:36;27.60;99.90
17425;DHT22;8830;50.978;5.058;2022-08-01T10:24:05;27.30;99.90
17425;DHT22;8830;50.978;5.058;2022-08-01T10:26:36;27.30;99.90
17425;DHT22;8830;50.978;5.058;2022-08-01T10:29:04;27.20;99.90
17425;DHT22;8830;50.978;5.058;2022-08-01T10:34:00;27.70;99.90
17425;DHT22;8830;50.978;5.058;2022-08-01T10:36:28;27.90;99.90
17425;DHT22;8830;50.978;5.058;2022-08-01T10:43:55;28.50;99.90
17425;DHT22;8830;50.978;5.058;2022-08-01T10:46:24;28.80;99.90
17425;DHT22;8830;50.978;5.058;2022-08-01T10:49:01;28.70;99.90
17425;DHT22;8830;50.978;5.058;2022-08-01T10:51:29;28.40;99.90
17425;DHT22;8830;50.978;5.058;2022-08-01T10:53:57;28.50;99.90
17425;DHT22;8830;50.978;5.058;2022-08-01T10:56:39;29.00;99.90
17425;DHT22;8830;50.978;5.058;2022-08-01T10:59:08;29.00;99.90
17425;DHT22;8830;50.978;5.058;2022-08-01T11:04:07;29.40;99.90
17425;DHT22;8830;50.978;5.058;2022-08-01T11:06:54;29.40;99.90
17425;DHT22;8830;50.978;5.058;2022-08-01T11:09:28;29.10;99.90
17425;DHT22;8830;50.978;5.058;2022-08-01T11:12:01;28.70;99.90
17425;DHT22;8830;50.978;5.058;2022-08-01T11:14:32;28.30;99.90
17425;DHT22;8830;50.978;5.058;2022-08-01T11:17:30;28.30;99.90
17425;DHT22;8830;50.978;5.058;2022-08-01T11:20:09;28.50;99.90
17425;DHT22;8830;50.978;5.058;2022-08-01T11:26:09;28.70;99.90
17425;DHT22;8830;50.978;5.058;2022-08-01T11:28:36;28.70;99.90
17425;DHT22;8830;50.978;5.058;2022-08-01T11:31:31;28.70;99.90
17425;DHT22;8830;50.978;5.058;2022-08-01T11:34:00;28.90;99.90
17425;DHT22;8830;50.978;5.058;2022-08-01T11:36:27;28.70;99.90
17425;DHT22;8830;50.978;5.058;2022-08-01T11:39:15;28.60;99.90
17425;DHT22;8830;50.978;5.058;2022-08-01T11:41:45;28.60;99.90
17425;DHT22;8830;50.978;5.058;2022-08-01T11:44:20;28.70;99.90
17425;DHT22;8830;50.978;5.058;2022-08-01T11:46:55;29.10;99.90
17425;DHT22;8830;50.978;5.058;2022-08-01T11:49:26;29.40;99.90
17425;DHT22;8830;50.978;5.058;2022-08-01T11:51:58;29.20;99.90
17425;DHT22;8830;50.978;5.058;2022-08-01T11:54:27;29.10;99.90
17425;DHT22;8830;50.978;5.058;2022-08-01T11:56:56;29.10;99.90
17425;DHT22;8830;50.978;5.058;2022-08-01T11:59:23;29.00;99.90
17425;DHT22;8830;50.978;5.058;2022-08-01T12:01:50;28.60;99.90
17425;DHT22;8830;50.978;5.058;2022-08-01T12:11:46;28.10;99.90
17425;DHT22;8830;50.978;5.058;2022-08-01T12:14:20;28.00;99.90
17425;DHT22;8830;50.978;5.058;2022-08-01T12:16:51;28.00;99.90
17425;DHT22;8830;50.978;5.058;2022-08-01T12:19:22;28.10;99.90
17425;DHT22;8830;50.978;5.058;2022-08-01T12:22:13;28.40;99.90
17425;DHT22;8830;50.978;5.058;2022-08-01T12:24:42;28.40;99.90
17425;DHT22;8830;50.978;5.058;2022-08-01T12:27:10;28.70;99.90
17425;DHT22;8830;50.978;5.058;2022-08-01T12:29:39;28.80;99.90
17425;DHT22;8830;50.978;5.058;2022-08-01T12:32:32;28.80;99.90
17425;DHT22;8830;50.978;5.058;2022-08-01T12:35:04;29.10;99.90
17425;DHT22;8830;50.978;5.058;2022-08-01T12:37:35;29.30;99.90
17425;DHT22;8830;50.978;5.058;2022-08-01T12:40:09;29.40;99.90
17425;DHT22;8830;50.978;5.058;2022-08-01T12:42:37;29.30;99.90
17425;DHT22;8830;50.978;5.058;2022-08-01T12:45:07;29.30;99.90
17425;DHT22;8830;50.978;5.058;2022-08-01T12:47:35;29.50;99.90
17425;DHT22;8830;50.978;5.058;2022-08-01T12:50:05;29.50;99.90
17425;DHT22;8830;50.978;5.058;2022-08-01T12:52:34;29.80;99.90
17425;DHT22;8830;50.978;5.058;2022-08-01T12:55:12;29.80;99.90
17425;DHT22;8830;50.978;5.058;2022-08-01T12:57:41;30.10;99.90
17425;DHT22;8830;50.978;5.058;2022-08-01T13:00:28;30.10;99.90
17425;DHT22;8830;50.978;5.058;2022-08-01T13:03:03;29.90;99.90
17425;DHT22;8830;50.978;5.058;2022-08-01T13:05:49;29.80;99.90
17425;DHT22;8830;50.978;5.058;2022-08-01T13:08:18;30.00;99.90
17425;DHT22;8830;50.978;5.058;2022-08-01T13:10:50;30.10;99.90
17425;DHT22;8830;50.978;5.058;2022-08-01T13:13:38;30.10;99.90
17425;DHT22;8830;50.978;5.058;2022-08-01T13:16:09;30.00;99.90
17425;DHT22;8830;50.978;5.058;2022-08-01T13:18:39;29.90;99.90
17425;DHT22;8830;50.978;5.058;2022-08-01T13:21:10;31.90;99.90
17425;DHT22;8830;50.978;5.058;2022-08-01T13:23:42;28.90;99.90
17425;DHT22;8830;50.978;5.058;2022-08-01T13:26:43;28.90;99.90
17425;DHT22;8830;50.978;5.058;2022-08-01T13:31:57;29.20;99.90
17425;DHT22;8830;50.978;5.058;2022-08-01T13:39:44;29.70;99.90
17425;DHT22;8830;50.978;5.058;2022-08-01T13:47:33;29.00;99.90
17425;DHT22;8830;50.978;5.058;2022-08-01T14:23:26;30.20;99.90
17425;DHT22;8830;50.978;5.058;2022-08-01T14:25:55;30.00;99.90
17425;DHT22;8830;50.978;5.058;2022-08-01T14:28:25;29.80;99.90
17425;DHT22;8830;50.978;5.058;2022-08-01T14:30:55;29.80;99.90
17425;DHT22;8830;50.978;5.058;2022-08-01T14:33:23;29.90;99.90
17425;DHT22;8830;50.978;5.058;2022-08-01T14:38:20;29.80;99.90
17425;DHT22;8830;50.978;5.058;2022-08-01T14:48:15;29.80;99.90
17425;DHT22;8830;50.978;5.058;2022-08-01T14:50:43;29.80;99.90
17425;DHT22;8830;50.978;5.058;2022-08-01T14:53:10;29.80;99.90
17425;DHT22;8830;50.978;5.058;2022-08-01T15:37:39;28.90;99.90
17425;DHT22;8830;50.978;5.058;2022-08-01T16:00:07;27.40;99.90
17425;DHT22;8830;50.978;5.058;2022-08-01T16:02:35;27.30;99.90
17425;DHT22;8830;50.978;5.058;2022-08-01T16:07:29;27.00;99.90
17425;DHT22;8830;50.978;5.058;2022-08-01T16:12:26;26.60;99.90
17425;DHT22;8830;50.978;5.058;2022-08-01T16:14:53;26.30;99.90
17425;DHT22;8830;50.978;5.058;2022-08-01T16:17:23;26.20;99.90
17425;DHT22;8830;50.978;5.058;2022-08-01T16:19:50;26.10;99.90
17425;DHT22;8830;50.978;5.058;2022-08-01T16:24:45;26.00;99.90
17425;DHT22;8830;50.978;5.058;2022-08-01T16:27:14;25.90;99.90
17425;DHT22;8830;50.978;5.058;2022-08-01T16:29:42;25.90;99.90
17425;DHT22;8830;50.978;5.058;2022-08-01T16:32:10;25.90;99.90
17425;DHT22;8830;50.978;5.058;2022-08-01T16:34:37;26.00;99.90
17425;DHT22;8830;50.978;5.058;2022-08-01T16:37:05;26.00;99.90
17425;DHT22;8830;50.978;5.058;2022-08-01T16:39:32;26.10;99.90
17425;DHT22;8830;50.978;5.058;2022-08-01T16:44:28;26.00;99.90
17425;DHT22;8830;50.978;5.058;2022-08-01T16:46:56;25.90;99.90
17425;DHT22;8830;50.978;5.058;2022-08-01T16:49:23;25.90;99.90
17425;DHT22;8830;50.978;5.058;2022-08-01T16:51:50;25.90;99.90
17425;DHT22;8830;50.978;5.058;2022-08-01T17:06:36;26.30;99.90
17425;DHT22;8830;50.978;5.058;2022-08-01T17:09:03;26.30;99.90
17425;DHT22;8830;50.978;5.058;2022-08-01T17:11:31;26.10;99.90
17425;DHT22;8830;50.978;5.058;2022-08-01T17:13:58;26.00;99.90
17425;DHT22;8830;50.978;5.058;2022-08-01T17:16:25;26.20;99.90
17425;DHT22;8830;50.978;5.058;2022-08-01T17:21:21;26.30;99.90
17425;DHT22;8830;50.978;5.058;2022-08-01T17:23:48;26.30;99.90
17425;DHT22;8830;50.978;5.058;2022-08-01T17:26:15;26.30;99.90
17425;DHT22;8830;50.978;5.058;2022-08-01T17:28:43;25.90;99.90
17425;DHT22;8830;50.978;5.058;2022-08-01T17:31:10;25.70;99.90
17425;DHT22;8830;50.978;5.058;2022-08-01T17:33:38;25.70;99.90
17425;DHT22;8830;50.978;5.058;2022-08-01T17:36:07;25.60;99.90
17425;DHT22;8830;50.978;5.058;2022-08-01T17:38:35;25.70;99.90
17425;DHT22;8830;50.978;5.058;2022-08-01T17:41:02;25.70;99.90
17425;DHT22;8830;50.978;5.058;2022-08-01T17:45:57;25.70;99.90
17425;DHT22;8830;50.978;5.058;2022-08-01T17:48:24;25.60;99.90
17425;DHT22;8830;50.978;5.058;2022-08-01T17:58:18;25.30;99.90
17425;DHT22;8830;50.978;5.058;2022-08-01T18:00:45;25.30;99.90
17425;DHT22;8830;50.978;5.058;2022-08-01T18:05:45;25.20;99.90
17425;DHT22;8830;50.978;5.058;2022-08-01T18:13:09;25.10;99.90
17425;DHT22;8830;50.978;5.058;2022-08-01T18:18:05;25.00;99.90
17425;DHT22;8830;50.978;5.058;2022-08-01T18:20:33;25.00;99.90
17425;DHT22;8830;50.978;5.058;2022-08-01T18:23:01;24.90;99.90
17425;DHT22;8830;50.978;5.058;2022-08-01T18:25:28;24.80;99.90
17425;DHT22;8830;50.978;5.058;2022-08-01T18:35:24;24.60;99.90
17425;DHT22;8830;50.978;5.058;2022-08-01T18:37:52;24.60;99.90
17425;DHT22;8830;50.978;5.058;2022-08-01T18:42:48;24.30;99.90
17425;DHT22;8830;50.978;5.058;2022-08-01T18:45:16;24.20;99.90
17425;DHT22;8830;50.978;5.058;2022-08-01T18:47:45;24.20;99.90
17425;DHT22;8830;50.978;5.058;2022-08-01T18:50:13;24.20;99.90
17425;DHT22;8830;50.978;5.058;2022-08-01T18:55:08;24.00;99.90
17425;DHT22;8830;50.978;5.058;2022-08-01T18:57:35;24.00;99.90
17425;DHT22;8830;50.978;5.058;2022-08-01T19:00:03;23.80;99.90
17425;DHT22;8830;50.978;5.058;2022-08-01T19:02:32;23.80;99.90
17425;DHT22;8830;50.978;5.058;2022-08-01T19:05:00;23.80;99.90
17425;DHT22;8830;50.978;5.058;2022-08-01T19:07:27;23.70;99.90
17425;DHT22;8830;50.978;5.058;2022-08-01T19:09:55;23.60;99.90
17425;DHT22;8830;50.978;5.058;2022-08-01T19:12:22;23.50;99.90
17425;DHT22;8830;50.978;5.058;2022-08-01T19:19:54;23.30;99.90
17425;DHT22;8830;50.978;5.058;2022-08-01T19:24:52;23.20;99.90
17425;DHT22;8830;50.978;5.058;2022-08-01T19:27:20;23.10;99.90
17425;DHT22;8830;50.978;5.058;2022-08-01T19:29:51;23.00;99.90
17425;DHT22;8830;50.978;5.058;2022-08-01T19:32:20;22.90;99.90
17425;DHT22;8830;50.978;5.058;2022-08-01T19:34:58;22.90;99.90
17425;DHT22;8830;50.978;5.058;2022-08-01T19:37:28;23.30;99.90
17425;DHT22;8830;50.978;5.058;2022-08-01T19:39:55;22.80;99.90
17425;DHT22;8830;50.978;5.058;2022-08-01T19:42:23;22.80;99.90
17425;DHT22;8830;50.978;5.058;2022-08-01T19:47:18;22.70;99.90
17425;DHT22;8830;50.978;5.058;2022-08-01T19:49:45;22.70;99.90
17425;DHT22;8830;50.978;5.058;2022-08-01T19:52:15;22.60;99.90
17425;DHT22;8830;50.978;5.058;2022-08-01T19:54:44;22.60;99.90
17425;DHT22;8830;50.978;5.058;2022-08-01T19:57:14;22.50;99.90
17425;DHT22;8830;50.978;5.058;2022-08-01T19:59:47;22.40;99.90
17425;DHT22;8830;50.978;5.058;2022-08-01T20:02:17;22.40;99.90
17425;DHT22;8830;50.978;5.058;2022-08-01T20:04:46;22.30;99.90
17425;DHT22;8830;50.978;5.058;2022-08-01T20:07:14;22.30;99.90
17425;DHT22;8830;50.978;5.058;2022-08-01T20:09:45;22.30;99.90
17425;DHT22;8830;50.978;5.058;2022-08-01T20:12:13;22.30;99.90
17425;DHT22;8830;50.978;5.058;2022-08-01T20:14:41;22.20;99.90
17425;DHT22;8830;50.978;5.058;2022-08-01T20:17:08;22.10;99.90
17425;DHT22;8830;50.978;5.058;2022-08-01T20:19:35;22.10;99.90